sensor_id;sensor_type;location;lat;lon;timestamp;pressure;altitude;pressure_sealevel;temperature;humidity
5879;BME280;2965;42.640;23.370;2023-02-02T05:01:51;94541.53;;;1.93;100.00
5879;BME280;2965;42.640;23.370;2023-02-02T05:04:17;94544.28;;;2.01;100.00
5879;BME280;2965;42.640;23.370;2023-02-02T05:06:43;94537.38;;;1.50;100.00
5879;BME280;2965;42.640;23.370;2023-02-02T05:09:09;94542.38;;;1.72;100.00
5879;BME280;2965;42.640;23.370;2023-02-02T05:11:35;94540.09;;;1.69;100.00
5879;BME280;2965;42.640;23.370;2023-02-02T05:14:00;94536.38;;;1.62;100.00
5879;BME280;2965;42.640;23.370;2023-02-02T05:16:25;94531.06;;;1.64;100.00
5879;BME280;2965;42.640;23.370;2023-02-02T05:18:53;94529.38;;;1.43;100.00
5879;BME280;2965;42.640;23.370;2023-02-02T05:21:19;94538.84;;;1.43;100.00
5879;BME280;2965;42.640;23.370;2023-02-02T05:23:45;94536.91;;;1.56;100.00
5879;BME280;2965;42.640;23.370;2023-02-02T05:26:16;94540.56;;;1.63;100.00
5879;BME280;2965;42.640;23.370;2023-02-02T05:28:42;94533.28;;;1.68;100.00
5879;BME280;2965;42.640;23.370;2023-02-02T05:31:08;94521.91;;;1.81;100.00
5879;BME280;2965;42.640;23.370;2023-02-02T05:33:34;94536.97;;;1.75;100.00
5879;BME280;2965;42.640;23.370;2023-02-02T05:35:59;94533.91;;;1.82;100.00
5879;BME280;2965;42.640;23.370;2023-02-02T05:38:25;94540.69;;;1.83;100.00
5879;BME280;2965;42.640;23.370;2023-02-02T05:40:50;94548.91;;;1.76;100.00
5879;BME280;2965;42.640;23.370;2023-02-02T05:43:15;94551.97;;;1.82;100.00
5879;BME280;2965;42.640;23.370;2023-02-02T05:45:41;94547.50;;;1.93;100.00
5879;BME280;2965;42.640;23.370;2023-02-02T05:48:07;94558.13;;;2.00;100.00
5879;BME280;2965;42.640;23.370;2023-02-02T05:50:33;94554.78;;;1.79;100.00
5879;BME280;2965;42.640;23.370;2023-02-02T05:52:58;94553.75;;;1.60;100.00
5879;BME280;2965;42.640;23.370;2023-02-02T05:55:24;94544.88;;;1.53;100.00
5879;BME280;2965;42.640;23.370;2023-02-02T05:57:49;94541.53;;;1.41;100.00
5879;BME280;2965;42.640;23.370;2023-02-02T06:00:15;94538.03;;;1.42;100.00
5879;BME280;2965;42.640;23.370;2023-02-02T06:02:40;94563.25;;;1.39;100.00
5879;BME280;2965;42.640;23.370;2023-02-02T06:05:06;94566.06;;;1.36;100.00
5879;BME280;2965;42.640;23.370;2023-02-02T06:07:31;94556.59;;;1.15;100.00
5879;BME280;2965;42.640;23.370;2023-02-02T06:09:56;94555.25;;;1.00;100.00
5879;BME280;2965;42.640;23.370;2023-02-02T06:12:22;94564.47;;;0.82;100.00
5879;BME280;2965;42.640;23.370;2023-02-02T06:14:47;94565.84;;;0.86;100.00
5879;BME280;2965;42.640;23.370;2023-02-02T06:17:13;94562.84;;;0.81;100.00
5879;BME280;2965;42.640;23.370;2023-02-02T06:19:38;94559.97;;;0.95;100.00
5879;BME280;2965;42.640;23.370;2023-02-02T06:22:03;94562.97;;;1.00;100.00
5879;BME280;2965;42.640;23.370;2023-02-02T06:24:29;94569.44;;;0.94;100.00
5879;BME280;2965;42.640;23.370;2023-02-02T06:26:54;94573.09;;;0.92;100.00
5879;BME280;2965;42.640;23.370;2023-02-02T06:29:19;94584.97;;;1.04;100.00
5879;BME280;2965;42.640;23.370;2023-02-02T06:31:45;94590.13;;;1.04;100.00
5879;BME280;2965;42.640;23.370;2023-02-02T06:34:10;94600.69;;;1.01;100.00
5879;BME280;2965;42.640;23.370;2023-02-02T06:36:39;94597.03;;;1.04;100.00
5879;BME280;2965;42.640;23.370;2023-02-02T06:39:05;94571.72;;;1.09;100.00
5879;BME280;2965;42.640;23.370;2023-02-02T06:41:32;94580.97;;;1.11;100.00
5879;BME280;2965;42.640;23.370;2023-02-02T06:43:57;94589.38;;;1.13;100.00
5879;BME280;2965;42.640;23.370;2023-02-02T06:46:23;94600.34;;;1.26;100.00
5879;BME280;2965;42.640;23.370;2023-02-02T06:48:48;94597.91;;;1.25;100.00
5879;BME280;2965;42.640;23.370;2023-02-02T06:51:14;94602.22;;;1.24;100.00
5879;BME280;2965;42.640;23.370;2023-02-02T06:53:39;94591.28;;;1.32;100.00
5879;BME280;2965;42.640;23.370;2023-02-02T06:56:06;94583.00;;;1.29;100.00
5879;BME280;2965;42.640;23.370;2023-02-02T06:58:33;94591.19;;;1.34;100.00
5879;BME280;2965;42.640;23.370;2023-02-02T07:01:07;94599.34;;;1.39;100.00
5879;BME280;2965;42.640;23.370;2023-02-02T07:03:33;94604.38;;;1.40;100.00
5879;BME280;2965;42.640;23.370;2023-02-02T07:06:08;94605.88;;;1.43;100.00
5879;BME280;2965;42.640;23.370;2023-02-02T07:08:34;94612.22;;;1.39;100.00
5879;BME280;2965;42.640;23.370;2023-02-02T07:10:59;94619.97;;;1.39;100.00
5879;BME280;2965;42.640;23.370;2023-02-02T07:13:25;94613.09;;;1.49;100.00
5879;BME280;2965;42.640;23.370;2023-02-02T07:15:50;94613.31;;;1.57;100.00
5879;BME280;2965;42.640;23.370;2023-02-02T07:18:15;94595.31;;;1.46;100.00
5879;BME280;2965;42.640;23.370;2023-02-02T07:20:41;94603.16;;;1.44;100.00
5879;BME280;2965;42.640;23.370;2023-02-02T07:23:06;94610.28;;;1.52;100.00
5879;BME280;2965;42.640;23.370;2023-02-02T07:25:31;94600.78;;;1.52;100.00
5879;BME280;2965;42.640;23.370;2023-02-02T07:27:57;94609.56;;;1.50;100.00
5879;BME280;2965;42.640;23.370;2023-02-02T07:30:22;94624.66;;;1.55;100.00
5879;BME280;2965;42.640;23.370;2023-02-02T07:32:49;94628.78;;;1.57;100.00
5879;BME280;2965;42.640;23.370;2023-02-02T07:35:16;94616.63;;;1.48;100.00
5879;BME280;2965;42.640;23.370;2023-02-02T07:37:41;94611.16;;;1.41;100.00
5879;BME280;2965;42.640;23.370;2023-02-02T07:40:09;94624.59;;;1.45;100.00
5879;BME280;2965;42.640;23.370;2023-02-02T07:42:35;94631.59;;;1.54;100.00
5879;BME280;2965;42.640;23.370;2023-02-02T07:45:00;94617.94;;;1.63;100.00
5879;BME280;2965;42.640;23.370;2023-02-02T07:47:25;94627.25;;;1.75;100.00
5879;BME280;2965;42.640;23.370;2023-02-02T07:49:51;94616.72;;;1.88;100.00
5879;BME280;2965;42.640;23.370;2023-02-02T07:52:17;94615.50;;;2.13;100.00
5879;BME280;2965;42.640;23.370;2023-02-02T07:54:42;94597.91;;;2.38;100.00
5879;BME280;2965;42.640;23.370;2023-02-02T07:57:07;94594.16;;;2.51;100.00
5879;BME280;2965;42.640;23.370;2023-02-02T07:59:33;94591.22;;;2.75;100.00
5879;BME280;2965;42.640;23.370;2023-02-02T08:01:58;94581.44;;;3.08;100.00
5879;BME280;2965;42.640;23.370;2023-02-02T08:04:23;94580.63;;;3.37;100.00
5879;BME280;2965;42.640;23.370;2023-02-02T08:06:49;94588.75;;;3.61;100.00
5879;BME280;2965;42.640;23.370;2023-02-02T08:09:14;94582.16;;;3.86;100.00
5879;BME280;2965;42.640;23.370;2023-02-02T08:11:40;94575.41;;;4.13;100.00
5879;BME280;2965;42.640;23.370;2023-02-02T08:14:05;94571.03;;;4.41;100.00
5879;BME280;2965;42.640;23.370;2023-02-02T08:16:32;94569.09;;;4.70;97.43
5879;BME280;2965;42.640;23.370;2023-02-02T08:18:58;94558.97;;;4.95;92.76
5879;BME280;2965;42.640;23.370;2023-02-02T08:21:23;94563.41;;;5.20;94.74
5879;BME280;2965;42.640;23.370;2023-02-02T08:23:51;94570.00;;;5.32;99.08
5879;BME280;2965;42.640;23.370;2023-02-02T08:26:23;94564.16;;;4.95;100.00
5879;BME280;2965;42.640;23.370;2023-02-02T08:28:55;94560.16;;;4.83;100.00
5879;BME280;2965;42.640;23.370;2023-02-02T08:33:51;94563.84;;;4.35;100.00
5879;BME280;2965;42.640;23.370;2023-02-02T08:36:21;94559.31;;;4.37;100.00
5879;BME280;2965;42.640;23.370;2023-02-02T08:38:47;94561.53;;;4.59;100.00
5879;BME280;2965;42.640;23.370;2023-02-02T08:41:15;94559.19;;;4.66;100.00
5879;BME280;2965;42.640;23.370;2023-02-02T08:43:41;94555.97;;;4.54;100.00
5879;BME280;2965;42.640;23.370;2023-02-02T08:46:08;94556.59;;;4.38;100.00
5879;BME280;2965;42.640;23.370;2023-02-02T08:51:13;94555.41;;;4.33;100.00
5879;BME280;2965;42.640;23.370;2023-02-02T08:53:40;94560.56;;;4.60;100.00
5879;BME280;2965;42.640;23.370;2023-02-02T08:56:10;94552.22;;;4.66;100.00
5879;BME280;2965;42.640;23.370;2023-02-02T08:58:36;94539.25;;;4.66;100.00
5879;BME280;2965;42.640;23.370;2023-02-02T09:01:12;94542.28;;;4.62;100.00
5879;BME280;2965;42.640;23.370;2023-02-02T09:03:37;94545.88;;;4.51;100.00
5879;BME280;2965;42.640;23.370;2023-02-02T09:06:09;94550.50;;;4.57;100.00
5879;BME280;2965;42.640;23.370;2023-02-02T09:08:35;94549.25;;;4.61;100.00
5879;BME280;2965;42.640;23.370;2023-02-02T09:11:19;94557.03;;;4.61;100.00
5879;BME280;2965;42.640;23.370;2023-02-02T09:13:47;94550.06;;;4.62;100.00
5879;BME280;2965;42.640;23.370;2023-02-02T09:16:17;94540.78;;;4.59;100.00
5879;BME280;2965;42.640;23.370;2023-02-02T09:18:43;94536.06;;;4.54;100.00
5879;BME280;2965;42.640;23.370;2023-02-02T09:21:11;94535.31;;;4.62;100.00
5879;BME280;2965;42.640;23.370;2023-02-02T09:23:39;94520.97;;;4.68;100.00
5879;BME280;2965;42.640;23.370;2023-02-02T09:26:12;94528.63;;;4.69;100.00
5879;BME280;2965;42.640;23.370;2023-02-02T09:28:39;94534.81;;;4.76;100.00
5879;BME280;2965;42.640;23.370;2023-02-02T09:31:06;94534.25;;;4.83;100.00
5879;BME280;2965;42.640;23.370;2023-02-02T09:33:32;94533.94;;;4.86;100.00
5879;BME280;2965;42.640;23.370;2023-02-02T09:36:26;94536.69;;;4.84;100.00
5879;BME280;2965;42.640;23.370;2023-02-02T09:38:52;94531.66;;;5.00;100.00
5879;BME280;2965;42.640;23.370;2023-02-02T09:52:16;94519.06;;;5.49;99.86
5879;BME280;2965;42.640;23.370;2023-02-02T09:54:45;94501.72;;;5.50;97.98
5879;BME280;2965;42.640;23.370;2023-02-02T09:57:21;94500.78;;;5.59;97.97
5879;BME280;2965;42.640;23.370;2023-02-02T09:59:49;94516.78;;;5.72;97.37
5879;BME280;2965;42.640;23.370;2023-02-02T10:02:30;94509.03;;;5.80;95.11
5879;BME280;2965;42.640;23.370;2023-02-02T10:05:21;94481.84;;;5.93;95.07
5879;BME280;2965;42.640;23.370;2023-02-02T10:07:53;94491.28;;;6.02;93.38
5879;BME280;2965;42.640;23.370;2023-02-02T10:10:25;94503.00;;;6.06;95.85
5879;BME280;2965;42.640;23.370;2023-02-02T10:12:53;94496.88;;;6.15;93.83
5879;BME280;2965;42.640;23.370;2023-02-02T10:17:53;94477.78;;;6.32;89.98
5879;BME280;2965;42.640;23.370;2023-02-02T10:20:28;94473.06;;;6.36;89.17
5879;BME280;2965;42.640;23.370;2023-02-02T10:23:07;94477.31;;;6.45;85.96
5879;BME280;2965;42.640;23.370;2023-02-02T10:25:36;94469.09;;;6.66;85.98
5879;BME280;2965;42.640;23.370;2023-02-02T10:28:17;94463.91;;;6.74;84.68
5879;BME280;2965;42.640;23.370;2023-02-02T10:30:45;94470.72;;;7.08;83.97
5879;BME280;2965;42.640;23.370;2023-02-02T10:33:35;94454.13;;;7.50;82.83
5879;BME280;2965;42.640;23.370;2023-02-02T10:46:32;94439.69;;;9.78;58.15
5879;BME280;2965;42.640;23.370;2023-02-02T10:49:35;94428.38;;;9.48;55.76
5879;BME280;2965;42.640;23.370;2023-02-02T10:52:24;94441.59;;;9.47;57.09
5879;BME280;2965;42.640;23.370;2023-02-02T10:55:05;94409.66;;;9.30;56.46
5879;BME280;2965;42.640;23.370;2023-02-02T11:00:20;94393.72;;;9.69;56.62
5879;BME280;2965;42.640;23.370;2023-02-02T11:02:46;94401.28;;;9.94;55.48
5879;BME280;2965;42.640;23.370;2023-02-02T11:05:27;94391.00;;;10.07;54.14
5879;BME280;2965;42.640;23.370;2023-02-02T11:08:17;94397.66;;;10.24;53.91
5879;BME280;2965;42.640;23.370;2023-02-02T11:10:45;94402.75;;;10.18;50.61
5879;BME280;2965;42.640;23.370;2023-02-02T11:13:18;94380.53;;;10.07;52.39
5879;BME280;2965;42.640;23.370;2023-02-02T11:15:45;94384.16;;;10.06;52.20
5879;BME280;2965;42.640;23.370;2023-02-02T11:18:27;94391.75;;;10.22;52.01
5879;BME280;2965;42.640;23.370;2023-02-02T11:20:53;94385.50;;;10.02;51.76
5879;BME280;2965;42.640;23.370;2023-02-02T11:23:20;94360.69;;;10.13;51.51
5879;BME280;2965;42.640;23.370;2023-02-02T11:25:56;94360.69;;;10.27;51.76
5879;BME280;2965;42.640;23.370;2023-02-02T11:28:24;94362.31;;;10.28;51.21
5879;BME280;2965;42.640;23.370;2023-02-02T11:30:54;94366.31;;;10.46;50.68
5879;BME280;2965;42.640;23.370;2023-02-02T11:33:25;94364.19;;;10.56;50.00
5879;BME280;2965;42.640;23.370;2023-02-02T11:35:58;94344.75;;;10.44;50.14
5879;BME280;2965;42.640;23.370;2023-02-02T11:38:24;94352.25;;;10.68;50.88
5879;BME280;2965;42.640;23.370;2023-02-02T11:40:59;94338.78;;;10.71;48.27
5879;BME280;2965;42.640;23.370;2023-02-02T11:43:33;94338.94;;;11.19;48.35
5879;BME280;2965;42.640;23.370;2023-02-02T11:46:13;94330.88;;;11.14;47.29
5879;BME280;2965;42.640;23.370;2023-02-02T11:48:48;94345.84;;;11.27;47.68
5879;BME280;2965;42.640;23.370;2023-02-02T11:51:21;94338.44;;;11.02;45.63
5879;BME280;2965;42.640;23.370;2023-02-02T11:53:48;94348.03;;;10.95;46.37
5879;BME280;2965;42.640;23.370;2023-02-02T11:56:24;94329.53;;;10.97;46.71
5879;BME280;2965;42.640;23.370;2023-02-02T11:58:54;94359.16;;;10.76;46.32
5879;BME280;2965;42.640;23.370;2023-02-02T12:01:26;94313.38;;;10.93;46.81
5879;BME280;2965;42.640;23.370;2023-02-02T12:03:58;94327.25;;;11.15;45.74
5879;BME280;2965;42.640;23.370;2023-02-02T12:06:26;94304.03;;;11.40;44.85
5879;BME280;2965;42.640;23.370;2023-02-02T12:08:58;94312.09;;;11.39;44.62
5879;BME280;2965;42.640;23.370;2023-02-02T12:15:11;94312.63;;;11.27;46.43
5879;BME280;2965;42.640;23.370;2023-02-02T12:17:43;94311.22;;;11.25;46.56
5879;BME280;2965;42.640;23.370;2023-02-02T12:20:41;94315.09;;;11.77;46.04
5879;BME280;2965;42.640;23.370;2023-02-02T12:23:26;94309.84;;;11.70;45.42
5879;BME280;2965;42.640;23.370;2023-02-02T12:26:12;94318.09;;;11.32;46.06
5879;BME280;2965;42.640;23.370;2023-02-02T12:28:59;94339.03;;;10.76;48.04
5879;BME280;2965;42.640;23.370;2023-02-02T12:31:57;94310.94;;;10.85;49.93
5879;BME280;2965;42.640;23.370;2023-02-02T12:40:42;94315.75;;;10.02;47.73
5879;BME280;2965;42.640;23.370;2023-02-02T12:44:44;94313.97;;;9.52;49.08
5879;BME280;2965;42.640;23.370;2023-02-02T12:52:25;94313.41;;;9.42;49.40
5879;BME280;2965;42.640;23.370;2023-02-02T13:00:32;94302.38;;;8.72;50.65
5879;BME280;2965;42.640;23.370;2023-02-02T13:03:29;94319.66;;;8.73;50.75
5879;BME280;2965;42.640;23.370;2023-02-02T13:09:00;94312.81;;;8.72;51.70
5879;BME280;2965;42.640;23.370;2023-02-02T13:14:16;94313.63;;;8.50;53.08
5879;BME280;2965;42.640;23.370;2023-02-02T13:16:46;94312.81;;;8.72;53.52
5879;BME280;2965;42.640;23.370;2023-02-02T13:19:23;94318.81;;;9.25;51.68
5879;BME280;2965;42.640;23.370;2023-02-02T13:21:53;94306.66;;;9.62;50.90
5879;BME280;2965;42.640;23.370;2023-02-02T13:24:26;94312.94;;;9.68;49.93
5879;BME280;2965;42.640;23.370;2023-02-02T13:26:53;94320.91;;;9.30;50.46
5879;BME280;2965;42.640;23.370;2023-02-02T13:29:30;94313.13;;;9.07;50.71
5879;BME280;2965;42.640;23.370;2023-02-02T13:32:04;94308.53;;;8.94;51.11
5879;BME280;2965;42.640;23.370;2023-02-02T13:34:43;94315.19;;;8.97;52.07
5879;BME280;2965;42.640;23.370;2023-02-02T13:37:40;94299.69;;;8.80;49.70
5879;BME280;2965;42.640;23.370;2023-02-02T13:40:37;94320.59;;;8.57;50.91
5879;BME280;2965;42.640;23.370;2023-02-02T13:57:27;94315.34;;;8.34;51.48
5879;BME280;2965;42.640;23.370;2023-02-02T14:05:40;94311.25;;;8.63;53.63
5879;BME280;2965;42.640;23.370;2023-02-02T14:08:20;94307.03;;;8.62;55.54
5879;BME280;2965;42.640;23.370;2023-02-02T14:13:22;94303.28;;;8.79;58.23
5879;BME280;2965;42.640;23.370;2023-02-02T14:16:19;94317.81;;;8.59;60.70
5879;BME280;2965;42.640;23.370;2023-02-02T14:26:46;94300.28;;;7.99;58.07
5879;BME280;2965;42.640;23.370;2023-02-02T14:29:36;94299.09;;;7.78;59.36
5879;BME280;2965;42.640;23.370;2023-02-02T14:34:38;94301.16;;;7.60;61.35
5879;BME280;2965;42.640;23.370;2023-02-02T14:39:29;94317.22;;;7.24;65.25
5879;BME280;2965;42.640;23.370;2023-02-02T14:42:17;94314.16;;;7.13;66.63
5879;BME280;2965;42.640;23.370;2023-02-02T14:50:22;94405.38;;;6.29;100.00
5879;BME280;2965;42.640;23.370;2023-02-02T14:53:22;94416.56;;;5.19;100.00
5879;BME280;2965;42.640;23.370;2023-02-02T14:56:05;94424.06;;;4.61;100.00
5879;BME280;2965;42.640;23.370;2023-02-02T14:58:52;94446.19;;;4.37;100.00
5879;BME280;2965;42.640;23.370;2023-02-02T15:06:44;94455.66;;;3.46;100.00
5879;BME280;2965;42.640;23.370;2023-02-02T15:25:40;94524.75;;;2.08;100.00
5879;BME280;2965;42.640;23.370;2023-02-02T15:30:55;94542.13;;;2.06;100.00
5879;BME280;2965;42.640;23.370;2023-02-02T15:33:32;94540.59;;;2.03;100.00
5879;BME280;2965;42.640;23.370;2023-02-02T15:36:04;94541.28;;;1.96;100.00
5879;BME280;2965;42.640;23.370;2023-02-02T15:38:35;94532.34;;;2.00;100.00
5879;BME280;2965;42.640;23.370;2023-02-02T15:41:31;94541.94;;;1.98;100.00
5879;BME280;2965;42.640;23.370;2023-02-02T15:43:59;94542.56;;;1.81;100.00
5879;BME280;2965;42.640;23.370;2023-02-02T15:46:30;94546.63;;;1.73;100.00
5879;BME280;2965;42.640;23.370;2023-02-02T15:51:55;94550.13;;;1.72;100.00
5879;BME280;2965;42.640;23.370;2023-02-02T15:54:28;94550.41;;;1.69;100.00
5879;BME280;2965;42.640;23.370;2023-02-02T15:56:55;94550.97;;;1.73;100.00
5879;BME280;2965;42.640;23.370;2023-02-02T15:59:24;94543.63;;;1.68;100.00
5879;BME280;2965;42.640;23.370;2023-02-02T16:02:40;94561.22;;;1.63;100.00
5879;BME280;2965;42.640;23.370;2023-02-02T16:04:42;94566.38;;;1.63;100.00
5879;BME280;2965;42.640;23.370;2023-02-02T16:07:14;94570.31;;;1.67;100.00
5879;BME280;2965;42.640;23.370;2023-02-02T16:09:41;94562.34;;;1.70;100.00
5879;BME280;2965;42.640;23.370;2023-02-02T16:12:13;94562.78;;;1.75;100.00
5879;BME280;2965;42.640;23.370;2023-02-02T16:14:44;94556.66;;;1.76;100.00
5879;BME280;2965;42.640;23.370;2023-02-02T16:17:27;94570.25;;;1.79;100.00
5879;BME280;2965;42.640;23.370;2023-02-02T16:20:00;94595.25;;;1.78;100.00
5879;BME280;2965;42.640;23.370;2023-02-02T16:22:27;94598.81;;;1.87;100.00
5879;BME280;2965;42.640;23.370;2023-02-02T16:24:57;94590.13;;;1.88;100.00
5879;BME280;2965;42.640;23.370;2023-02-02T16:27:25;94591.75;;;1.89;100.00
5879;BME280;2965;42.640;23.370;2023-02-02T16:29:51;94602.22;;;1.87;100.00
5879;BME280;2965;42.640;23.370;2023-02-02T16:32:30;94593.38;;;1.90;100.00
5879;BME280;2965;42.640;23.370;2023-02-02T16:34:56;94596.91;;;1.89;100.00
5879;BME280;2965;42.640;23.370;2023-02-02T16:37:26;94584.44;;;1.94;100.00
5879;BME280;2965;42.640;23.370;2023-02-02T16:40:14;94594.75;;;1.94;100.00
5879;BME280;2965;42.640;23.370;2023-02-02T16:45:48;94588.34;;;1.88;100.00
5879;BME280;2965;42.640;23.370;2023-02-02T16:48:42;94589.56;;;1.84;100.00
5879;BME280;2965;42.640;23.370;2023-02-02T16:54:26;94596.66;;;1.92;100.00
5879;BME280;2965;42.640;23.370;2023-02-02T16:59:20;94598.47;;;2.01;100.00
5879;BME280;2965;42.640;23.370;2023-02-02T17:01:49;94609.75;;;2.00;100.00
5879;BME280;2965;42.640;23.370;2023-02-02T17:04:36;94611.41;;;2.11;100.00
5879;BME280;2965;42.640;23.370;2023-02-02T17:07:12;94613.41;;;2.07;100.00
5879;BME280;2965;42.640;23.370;2023-02-02T17:09:41;94603.09;;;2.07;100.00
5879;BME280;2965;42.640;23.370;2023-02-02T17:17:46;94630.28;;;2.11;100.00
5879;BME280;2965;42.640;23.370;2023-02-02T17:20:13;94632.31;;;2.08;100.00
5879;BME280;2965;42.640;23.370;2023-02-02T17:22:45;94635.16;;;2.05;100.00
5879;BME280;2965;42.640;23.370;2023-02-02T17:25:16;94651.84;;;2.00;100.00
5879;BME280;2965;42.640;23.370;2023-02-02T17:27:42;94638.81;;;2.02;100.00
5879;BME280;2965;42.640;23.370;2023-02-02T17:30:13;94636.09;;;2.03;100.00
5879;BME280;2965;42.640;23.370;2023-02-02T17:32:39;94628.34;;;2.03;100.00
5879;BME280;2965;42.640;23.370;2023-02-02T17:35:37;94622.25;;;2.05;100.00
5879;BME280;2965;42.640;23.370;2023-02-02T17:38:02;94616.28;;;2.04;100.00
5879;BME280;2965;42.640;23.370;2023-02-02T17:40:28;94612.75;;;2.05;100.00
5879;BME280;2965;42.640;23.370;2023-02-02T17:42:53;94623.47;;;2.00;100.00
5879;BME280;2965;42.640;23.370;2023-02-02T17:45:27;94626.59;;;2.04;100.00
5879;BME280;2965;42.640;23.370;2023-02-02T17:47:52;94643.53;;;1.97;100.00
5879;BME280;2965;42.640;23.370;2023-02-02T17:50:18;94635.78;;;1.97;100.00
5879;BME280;2965;42.640;23.370;2023-02-02T17:52:46;94639.31;;;1.96;100.00
5879;BME280;2965;42.640;23.370;2023-02-02T17:57:42;94630.81;;;2.05;100.00
5879;BME280;2965;42.640;23.370;2023-02-02T18:00:08;94637.06;;;2.12;100.00
5879;BME280;2965;42.640;23.370;2023-02-02T18:02:34;94646.66;;;2.21;100.00
5879;BME280;2965;42.640;23.370;2023-02-02T18:05:00;94639.59;;;2.23;100.00
5879;BME280;2965;42.640;23.370;2023-02-02T18:07:26;94654.41;;;2.21;100.00
5879;BME280;2965;42.640;23.370;2023-02-02T18:09:51;94651.13;;;2.19;100.00
5879;BME280;2965;42.640;23.370;2023-02-02T18:12:16;94645.69;;;2.22;100.00
5879;BME280;2965;42.640;23.370;2023-02-02T18:14:42;94649.47;;;2.18;100.00
5879;BME280;2965;42.640;23.370;2023-02-02T18:17:07;94653.84;;;2.18;100.00
5879;BME280;2965;42.640;23.370;2023-02-02T18:19:33;94654.66;;;2.18;100.00
5879;BME280;2965;42.640;23.370;2023-02-02T18:21:58;94656.97;;;2.21;100.00
5879;BME280;2965;42.640;23.370;2023-02-02T18:24:23;94650.03;;;2.22;100.00
5879;BME280;2965;42.640;23.370;2023-02-02T18:26:49;94662.81;;;2.23;100.00
5879;BME280;2965;42.640;23.370;2023-02-02T18:29:14;94658.59;;;2.22;100.00
5879;BME280;2965;42.640;23.370;2023-02-02T18:31:39;94662.25;;;2.20;100.00
5879;BME280;2965;42.640;23.370;2023-02-02T18:34:05;94670.94;;;2.19;100.00
5879;BME280;2965;42.640;23.370;2023-02-02T18:36:30;94675.03;;;2.21;100.00
5879;BME280;2965;42.640;23.370;2023-02-02T18:38:55;94678.31;;;2.23;100.00
5879;BME280;2965;42.640;23.370;2023-02-02T18:41:22;94682.50;;;2.24;100.00
5879;BME280;2965;42.640;23.370;2023-02-02T18:43:47;94679.94;;;2.24;100.00
5879;BME280;2965;42.640;23.370;2023-02-02T18:46:14;94676.72;;;2.32;100.00
5879;BME280;2965;42.640;23.370;2023-02-02T18:48:41;94667.19;;;2.33;100.00
5879;BME280;2965;42.640;23.370;2023-02-02T18:51:09;94666.63;;;2.29;100.00
5879;BME280;2965;42.640;23.370;2023-02-02T18:53:35;94667.44;;;2.30;100.00
5879;BME280;2965;42.640;23.370;2023-02-02T18:56:08;94682.94;;;2.30;100.00
5879;BME280;2965;42.640;23.370;2023-02-02T18:58:35;94679.44;;;2.31;100.00
5879;BME280;2965;42.640;23.370;2023-02-02T19:01:08;94675.91;;;2.32;100.00
5879;BME280;2965;42.640;23.370;2023-02-02T19:03:34;94677.38;;;2.34;100.00
5879;BME280;2965;42.640;23.370;2023-02-02T19:06:01;94678.47;;;2.32;100.00
5879;BME280;2965;42.640;23.370;2023-02-02T19:08:45;94674.28;;;2.31;100.00
5879;BME280;2965;42.640;23.370;2023-02-02T19:11:14;94684.88;;;2.37;100.00
5879;BME280;2965;42.640;23.370;2023-02-02T19:13:41;94687.78;;;2.44;100.00
5879;BME280;2965;42.640;23.370;2023-02-02T19:16:33;94693.75;;;2.44;100.00
5879;BME280;2965;42.640;23.370;2023-02-02T19:19:04;94692.56;;;2.48;100.00
5879;BME280;2965;42.640;23.370;2023-02-02T19:21:32;94695.00;;;2.50;100.00
5879;BME280;2965;42.640;23.370;2023-02-02T19:23:58;94694.75;;;2.53;100.00
5879;BME280;2965;42.640;23.370;2023-02-02T19:26:25;94690.78;;;2.49;100.00
5879;BME280;2965;42.640;23.370;2023-02-02T19:28:53;94691.03;;;2.46;100.00
5879;BME280;2965;42.640;23.370;2023-02-02T19:31:19;94702.56;;;2.42;100.00
5879;BME280;2965;42.640;23.370;2023-02-02T19:33:49;94706.50;;;2.36;100.00
5879;BME280;2965;42.640;23.370;2023-02-02T19:36:23;94708.69;;;2.41;100.00
5879;BME280;2965;42.640;23.370;2023-02-02T19:38:52;94698.19;;;2.33;100.00
5879;BME280;2965;42.640;23.370;2023-02-02T19:41:21;94708.25;;;2.36;100.00
5879;BME280;2965;42.640;23.370;2023-02-02T19:43:48;94705.50;;;2.27;100.00
5879;BME280;2965;42.640;23.370;2023-02-02T19:46:17;94706.31;;;2.28;100.00
5879;BME280;2965;42.640;23.370;2023-02-02T19:48:43;94710.09;;;2.24;100.00
5879;BME280;2965;42.640;23.370;2023-02-02T19:51:36;94707.13;;;2.28;100.00
5879;BME280;2965;42.640;23.370;2023-02-02T19:54:10;94708.75;;;2.30;100.00
5879;BME280;2965;42.640;23.370;2023-02-02T19:56:38;94712.81;;;2.22;100.00
5879;BME280;2965;42.640;23.370;2023-02-02T19:59:09;94699.91;;;2.22;100.00
5879;BME280;2965;42.640;23.370;2023-02-02T20:01:37;94705.19;;;2.21;100.00
5879;BME280;2965;42.640;23.370;2023-02-02T20:04:11;94709.53;;;2.20;100.00
5879;BME280;2965;42.640;23.370;2023-02-02T20:06:37;94714.69;;;2.20;100.00
5879;BME280;2965;42.640;23.370;2023-02-02T20:09:04;94726.69;;;2.21;100.00
5879;BME280;2965;42.640;23.370;2023-02-02T20:11:38;94725.34;;;2.27;100.00
5879;BME280;2965;42.640;23.370;2023-02-02T20:17:25;94708.75;;;2.30;100.00
5879;BME280;2965;42.640;23.370;2023-02-02T20:19:53;94709.56;;;2.30;100.00
5879;BME280;2965;42.640;23.370;2023-02-02T20:22:23;94708.59;;;2.21;100.00
5879;BME280;2965;42.640;23.370;2023-02-02T20:24:51;94699.19;;;2.20;100.00
5879;BME280;2965;42.640;23.370;2023-02-02T20:27:19;94695.69;;;2.21;100.00
5879;BME280;2965;42.640;23.370;2023-02-02T20:29:47;94701.09;;;2.18;100.00
5879;BME280;2965;42.640;23.370;2023-02-02T20:34:49;94701.72;;;2.32;100.00
5879;BME280;2965;42.640;23.370;2023-02-02T20:37:35;94708.25;;;2.36;100.00
5879;BME280;2965;42.640;23.370;2023-02-02T20:40:06;94704.16;;;2.33;100.00
5879;BME280;2965;42.640;23.370;2023-02-02T20:42:44;94711.22;;;2.31;100.00
5879;BME280;2965;42.640;23.370;2023-02-02T20:45:11;94693.03;;;2.33;100.00
5879;BME280;2965;42.640;23.370;2023-02-02T20:47:36;94690.81;;;2.28;100.00
5879;BME280;2965;42.640;23.370;2023-02-02T20:50:03;94684.84;;;2.27;100.00
5879;BME280;2965;42.640;23.370;2023-02-02T20:52:28;94683.22;;;2.26;100.00
5879;BME280;2965;42.640;23.370;2023-02-02T20:54:55;94685.09;;;2.24;100.00
5879;BME280;2965;42.640;23.370;2023-02-02T20:57:21;94676.16;;;2.28;100.00
5879;BME280;2965;42.640;23.370;2023-02-02T20:59:47;94690.53;;;2.21;100.00
5879;BME280;2965;42.640;23.370;2023-02-02T21:04:41;94687.00;;;2.22;100.00